Time;durP1;ratioP1;P1;durP2;ratioP2;P2;SDS_P1;SDS_P2;PMS_P1;PMS_P2;Temp;Humidity;BMP_temperature;BMP_pressure;BME280_temperature;BME280_humidity;BME280_pressure;Samples;Min_cycle;Max_cycle;Signal;HPM_P1;HPM_P2
2024/01/28 00:01:29;;;;;;;2.80;2.27;;;;;0.70;97526.00;;;;5076417;28;20232;-62
2024/01/28 00:03:59;;;;;;;1.80;1.70;;;;;0.80;97523.00;;;;5078239;28;20624;-62
2024/01/28 00:06:27;;;;;;;1.87;1.77;;;;;0.80;97519.00;;;;5078901;28;20198;-62
2024/01/28 00:08:54;;;;;;;2.43;2.33;;;;;0.80;97513.00;;;;5078374;28;20191;-62
2024/01/28 00:11:23;;;;;;;1.10;1.10;;;;;0.90;97513.00;;;;5079841;28;20198;-62
2024/01/28 00:13:51;;;;;;;2.47;2.27;;;;;0.80;97512.00;;;;5078293;28;20214;-62
2024/01/28 00:16:21;;;;;;;1.77;1.67;;;;;0.80;97512.00;;;;5076999;28;20281;-62
2024/01/28 00:18:57;;;;;;;1.97;1.87;;;;;0.70;97501.00;;;;5077313;28;20643;-62
2024/01/28 00:21:25;;;;;;;2.17;1.97;;;;;0.60;97499.00;;;;5078510;28;20631;-62
2024/01/28 00:23:52;;;;;;;3.57;2.40;;;;;0.60;97489.00;;;;5060723;28;20257;-62
2024/01/28 00:26:21;;;;;;;2.63;2.43;;;;;0.60;97491.00;;;;5076721;28;20210;-62
2024/01/28 00:28:48;;;;;;;2.67;1.77;;;;;0.50;97484.00;;;;5077446;28;20264;-62
2024/01/28 00:31:16;;;;;;;3.57;2.37;;;;;0.50;97482.00;;;;5076783;28;20221;-63
2024/01/28 00:33:45;;;;;;;1.93;1.83;;;;;0.60;97487.00;;;;5059607;28;20211;-62
2024/01/28 00:36:19;;;;;;;1.73;1.63;;;;;0.50;97481.00;;;;5077988;28;20195;-62
2024/01/28 00:38:46;;;;;;;2.77;2.53;;;;;0.50;97478.00;;;;5077546;28;20649;-61
2024/01/28 00:41:22;;;;;;;2.40;2.07;;;;;0.50;97465.00;;;;5077243;28;20200;-62
2024/01/28 00:43:50;;;;;;;1.33;1.27;;;;;0.60;97474.00;;;;5077777;28;20221;-62
2024/01/28 00:46:17;;;;;;;2.47;1.77;;;;;0.40;97480.00;;;;5076555;28;20250;-62
2024/01/28 00:48:48;;;;;;;1.20;1.20;;;;;0.50;97476.00;;;;5077385;28;20188;-62
2024/01/28 00:51:16;;;;;;;1.73;1.63;;;;;0.50;97474.00;;;;5077322;28;20184;-62
2024/01/28 00:53:43;;;;;;;4.33;2.80;;;;;0.40;97474.00;;;;5077408;28;20717;-61
2024/01/28 00:56:13;;;;;;;3.33;2.10;;;;;0.30;97474.00;;;;5076496;28;20198;-61
2024/01/28 00:58:40;;;;;;;1.23;1.23;;;;;0.30;97465.00;;;;5077163;28;20199;-62
2024/01/28 01:01:08;;;;;;;1.03;1.03;;;;;0.30;97462.00;;;;5076255;28;20195;-61
2024/01/28 01:03:35;;;;;;;1.73;1.63;;;;;0.30;97452.00;;;;5077075;28;20232;-61
2024/01/28 01:06:05;;;;;;;2.03;1.93;;;;;0.40;97449.00;;;;5076590;28;20274;-62
2024/01/28 01:08:33;;;;;;;1.87;1.77;;;;;0.40;97460.00;;;;5076341;28;20733;-62
2024/01/28 01:11:03;;;;;;;3.10;1.70;;;;;0.30;97455.00;;;;5075893;28;20590;-61
2024/01/28 01:13:30;;;;;;;1.03;1.03;;;;;0.20;97451.00;;;;5077912;28;20676;-62
2024/01/28 01:15:58;;;;;;;3.13;2.50;;;;;0.30;97450.00;;;;5076002;28;20200;-61
2024/01/28 01:18:25;;;;;;;3.00;2.30;;;;;0.30;97453.00;;;;5076226;28;20191;-61
2024/01/28 01:20:53;;;;;;;3.27;3.00;;;;;0.20;97439.00;;;;5076036;28;20198;-61
2024/01/28 01:23:21;;;;;;;1.63;1.53;;;;;0.00;97440.00;;;;5076449;28;20250;-61
2024/01/28 01:25:49;;;;;;;1.60;1.50;;;;;0.00;97435.00;;;;5076004;28;20205;-61
2024/01/28 01:28:16;;;;;;;3.67;2.10;;;;;-0.10;97445.00;;;;5075837;28;20191;-61
2024/01/28 01:30:44;;;;;;;2.50;2.13;;;;;-0.30;97446.00;;;;5075901;28;20279;-61
2024/01/28 01:33:11;;;;;;;1.73;1.63;;;;;-0.30;97442.00;;;;5075514;28;20211;-61
2024/01/28 01:35:39;;;;;;;1.70;1.60;;;;;-0.20;97451.00;;;;5075608;28;20553;-61
2024/01/28 01:38:07;;;;;;;3.87;3.00;;;;;0.00;97447.00;;;;5075936;28;20193;-61
2024/01/28 01:40:36;;;;;;;1.63;1.53;;;;;0.00;97445.00;;;;5076220;28;20688;-62
2024/01/28 01:43:09;;;;;;;1.47;1.43;;;;;0.10;97452.00;;;;5075666;28;20662;-62
2024/01/28 01:45:37;;;;;;;1.40;1.30;;;;;0.10;97447.00;;;;5075643;28;20236;-62
2024/01/28 01:48:06;;;;;;;3.40;2.30;;;;;0.00;97450.00;;;;5075649;28;20681;-62
2024/01/28 01:50:34;;;;;;;1.10;1.10;;;;;0.00;97450.00;;;;5075572;28;20598;-62
2024/01/28 01:53:03;;;;;;;1.83;1.40;;;;;0.00;97440.00;;;;5075707;28;20218;-62
2024/01/28 01:55:31;;;;;;;1.57;1.47;;;;;0.00;97431.00;;;;5075841;28;20574;-62
2024/01/28 01:58:00;;;;;;;1.17;1.13;;;;;0.00;97436.00;;;;5075338;28;20190;-63
2024/01/28 02:00:28;;;;;;;2.67;2.47;;;;;0.10;97424.00;;;;5058115;28;20199;-62
2024/01/28 02:02:55;;;;;;;1.20;1.20;;;;;0.10;97417.00;;;;5075218;28;20665;-62
2024/01/28 02:05:23;;;;;;;2.03;1.93;;;;;0.00;97417.00;;;;5077319;28;20221;-62
2024/01/28 02:07:51;;;;;;;2.93;2.40;;;;;0.00;97417.00;;;;5075486;28;20198;-62
2024/01/28 02:10:19;;;;;;;1.27;1.27;;;;;-0.20;97420.00;;;;5075122;28;20638;-62
2024/01/28 02:12:49;;;;;;;1.00;1.00;;;;;-0.20;97413.00;;;;5075182;28;20210;-62
2024/01/28 02:15:18;;;;;;;1.33;1.23;;;;;-0.20;97398.00;;;;5074874;28;20665;-62
2024/01/28 02:17:46;;;;;;;4.30;2.17;;;;;-0.20;97398.00;;;;5074855;28;20658;-61
2024/01/28 02:20:14;;;;;;;1.17;1.17;;;;;-0.20;97402.00;;;;5075180;28;20186;-61
2024/01/28 02:22:41;;;;;;;1.30;1.30;;;;;-0.30;97406.00;;;;5075356;28;20221;-61
2024/01/28 02:25:10;;;;;;;1.73;1.63;;;;;-0.40;97393.00;;;;5074781;28;20657;-61
2024/01/28 02:27:40;;;;;;;2.07;1.97;;;;;-0.50;97383.00;;;;5074903;28;20193;-61
2024/01/28 02:30:09;;;;;;;1.23;1.23;;;;;-0.40;97388.00;;;;5056990;28;20283;-62
2024/01/28 02:32:48;;;;;;;1.53;1.43;;;;;-0.50;97400.00;;;;5076256;28;20214;-62
2024/01/28 02:35:16;;;;;;;1.73;1.63;;;;;-0.50;97392.00;;;;5075751;28;20221;-62
2024/01/28 02:37:43;;;;;;;2.60;2.10;;;;;-0.50;97394.00;;;;5074438;28;20602;-62
2024/01/28 02:40:13;;;;;;;1.97;1.77;;;;;-0.40;97390.00;;;;5074592;28;20201;-62
2024/01/28 02:42:40;;;;;;;1.70;1.60;;;;;-0.50;97393.00;;;;5073922;28;20221;-62
2024/01/28 02:45:09;;;;;;;2.00;1.73;;;;;-0.50;97394.00;;;;5074394;28;20202;-62
2024/01/28 02:47:36;;;;;;;2.17;2.00;;;;;-0.50;97391.00;;;;5076406;28;20220;-62
2024/01/28 02:50:04;;;;;;;0.90;0.90;;;;;-0.40;97388.00;;;;5056805;28;20200;-62
2024/01/28 02:52:32;;;;;;;1.20;1.20;;;;;-0.50;97386.00;;;;5074474;28;20221;-62
2024/01/28 02:54:59;;;;;;;1.30;1.20;;;;;-0.50;97386.00;;;;5074584;28;20548;-62
2024/01/28 02:57:28;;;;;;;2.40;2.00;;;;;-0.60;97378.00;;;;5074133;28;20223;-62
2024/01/28 02:59:57;;;;;;;1.97;1.87;;;;;-0.60;97382.00;;;;5074765;28;20194;-62
2024/01/28 03:02:24;;;;;;;2.50;2.30;;;;;-0.70;97372.00;;;;5074288;28;20237;-62
2024/01/28 03:04:53;;;;;;;2.17;1.97;;;;;-0.80;97371.00;;;;5073923;28;20585;-62
2024/01/28 03:07:21;;;;;;;1.97;1.87;;;;;-0.80;97368.00;;;;5073963;28;20675;-62
2024/01/28 03:09:48;;;;;;;2.10;2.00;;;;;-0.90;97380.00;;;;5076222;28;20601;-62
2024/01/28 03:12:16;;;;;;;1.00;1.00;;;;;-0.80;97377.00;;;;5075089;28;20224;-62
2024/01/28 03:14:48;;;;;;;1.50;1.40;;;;;-0.80;97370.00;;;;5075078;28;20185;-62
2024/01/28 03:17:16;;;;;;;2.13;2.03;;;;;-0.80;97381.00;;;;5074815;28;20190;-62
2024/01/28 03:19:43;;;;;;;1.70;1.60;;;;;-0.70;97378.00;;;;5073780;28;20736;-62
2024/01/28 03:22:11;;;;;;;1.23;1.23;;;;;-0.80;97385.00;;;;5073906;28;20209;-61
2024/01/28 03:24:40;;;;;;;1.90;1.80;;;;;-0.70;97375.00;;;;5073856;28;20581;-61
2024/01/28 03:27:07;;;;;;;2.00;1.90;;;;;-0.70;97390.00;;;;5073834;28;20244;-61
2024/01/28 03:29:35;;;;;;;1.27;1.17;;;;;-0.70;97386.00;;;;5073914;28;20208;-61
2024/01/28 03:32:04;;;;;;;1.40;1.30;;;;;-0.80;97384.00;;;;5076268;28;20237;-61
2024/01/28 03:34:32;;;;;;;1.07;1.07;;;;;-0.80;97379.00;;;;5075075;28;20552;-61
2024/01/28 03:37:03;;;;;;;1.33;1.23;;;;;-0.90;97381.00;;;;5074816;28;20201;-61
2024/01/28 03:39:34;;;;;;;2.57;2.13;;;;;-0.90;97373.00;;;;5075386;28;20246;-61
2024/01/28 03:42:02;;;;;;;2.23;2.03;;;;;-0.90;97372.00;;;;5073657;28;20221;-61
2024/01/28 03:44:35;;;;;;;1.87;1.77;;;;;-0.90;97383.00;;;;5075448;28;20227;-61
2024/01/28 03:47:04;;;;;;;2.33;2.20;;;;;-0.90;97375.00;;;;5075705;28;20247;-61
2024/01/28 03:49:32;;;;;;;1.40;1.30;;;;;-1.00;97382.00;;;;5075417;28;20546;-62
2024/01/28 03:51:59;;;;;;;1.33;1.33;;;;;-1.20;97382.00;;;;5075118;28;20210;-65
2024/01/28 03:54:27;;;;;;;1.37;1.27;;;;;-1.20;97366.00;;;;5076653;28;20217;-61
2024/01/28 03:56:54;;;;;;;1.57;1.47;;;;;-1.10;97369.00;;;;5074231;28;20203;-61
2024/01/28 03:59:22;;;;;;;2.00;1.77;;;;;-1.00;97369.00;;;;5075889;28;20279;-62
2024/01/28 04:01:49;;;;;;;1.53;1.53;;;;;-0.90;97369.00;;;;5075437;28;20697;-62
2024/01/28 04:04:18;;;;;;;1.40;1.40;;;;;-1.00;97370.00;;;;5073295;28;20217;-62
2024/01/28 04:06:46;;;;;;;1.87;1.77;;;;;-1.00;97376.00;;;;5075136;28;20197;-62
2024/01/28 04:09:14;;;;;;;1.30;1.30;;;;;-0.90;97374.00;;;;5074454;28;20300;-62
2024/01/28 04:11:41;;;;;;;1.83;1.67;;;;;-0.90;97370.00;;;;5074599;28;20222;-62
2024/01/28 04:14:08;;;;;;;1.03;1.03;;;;;-0.90;97375.00;;;;5058413;28;20576;-62
2024/01/28 04:16:36;;;;;;;1.83;1.60;;;;;-1.00;97367.00;;;;5076135;28;20205;-62
2024/01/28 04:19:03;;;;;;;1.07;1.07;;;;;-1.00;97369.00;;;;5057042;28;20196;-62
2024/01/28 04:21:34;;;;;;;1.17;1.17;;;;;-1.10;97378.00;;;;5075101;28;20215;-62
2024/01/28 04:24:02;;;;;;;4.53;1.83;;;;;-1.00;97368.00;;;;5073586;28;20201;-62
2024/01/28 04:26:29;;;;;;;1.87;1.53;;;;;-1.00;97380.00;;;;5074768;28;20229;-62
2024/01/28 04:28:57;;;;;;;1.20;1.20;;;;;-1.00;97375.00;;;;5074996;28;20195;-62
2024/01/28 04:31:29;;;;;;;1.50;1.47;;;;;-1.00;97366.00;;;;5077920;28;20193;-62
2024/01/28 04:33:57;;;;;;;1.70;1.60;;;;;-1.00;97370.00;;;;5060068;28;20196;-62
2024/01/28 04:36:25;;;;;;;1.97;1.80;;;;;-1.10;97373.00;;;;5076082;28;20196;-62
2024/01/28 04:38:54;;;;;;;1.63;1.53;;;;;-1.00;97373.00;;;;5073669;28;20643;-62
2024/01/28 04:41:22;;;;;;;1.50;1.40;;;;;-1.10;97368.00;;;;5074607;28;20204;-63
2024/01/28 04:43:49;;;;;;;2.00;1.77;;;;;-1.00;97368.00;;;;5073069;28;20234;-63
2024/01/28 04:46:22;;;;;;;1.43;1.33;;;;;-1.00;97369.00;;;;5074556;28;20555;-63
2024/01/28 04:48:50;;;;;;;2.17;2.00;;;;;-1.00;97373.00;;;;5079251;28;20181;-63
2024/01/28 04:51:17;;;;;;;1.07;1.07;;;;;-1.00;97366.00;;;;5076862;28;20192;-62
2024/01/28 04:53:45;;;;;;;1.37;1.20;;;;;-1.00;97371.00;;;;5059044;28;20574;-63
2024/01/28 04:56:14;;;;;;;1.30;1.30;;;;;-0.90;97377.00;;;;5077324;28;20208;-63
2024/01/28 04:58:42;;;;;;;1.03;1.03;;;;;-0.90;97368.00;;;;5078685;28;20499;-63
2024/01/28 05:01:09;;;;;;;2.97;2.17;;;;;-0.90;97378.00;;;;5078870;28;20192;-63
2024/01/28 05:03:36;;;;;;;1.23;1.23;;;;;-0.90;97367.00;;;;5076586;28;20280;-63
2024/01/28 05:06:05;;;;;;;1.00;1.00;;;;;-0.90;97365.00;;;;5076737;28;20228;-63
2024/01/28 05:08:32;;;;;;;1.03;1.03;;;;;-0.90;97370.00;;;;5077169;28;20201;-62
2024/01/28 05:11:00;;;;;;;1.23;1.23;;;;;-1.00;97371.00;;;;5076753;28;20213;-62
2024/01/28 05:13:32;;;;;;;1.27;1.20;;;;;-1.00;97357.00;;;;5061700;28;20277;-61
2024/01/28 05:15:59;;;;;;;1.17;1.17;;;;;-1.00;97358.00;;;;5058920;28;20204;-61
2024/01/28 05:18:27;;;;;;;1.53;1.43;;;;;-0.90;97361.00;;;;5058489;28;20207;-62
2024/01/28 05:20:54;;;;;;;1.00;1.00;;;;;-1.00;97354.00;;;;5075812;28;20188;-61
2024/01/28 05:23:22;;;;;;;1.33;1.33;;;;;-1.00;97351.00;;;;5058487;28;20256;-61
2024/01/28 05:25:49;;;;;;;1.53;1.43;;;;;-1.00;97354.00;;;;5077018;28;20688;-62
2024/01/28 05:28:17;;;;;;;1.87;1.77;;;;;-1.10;97353.00;;;;5076880;28;20189;-62
2024/01/28 05:30:46;;;;;;;2.50;1.93;;;;;-1.10;97349.00;;;;5076875;28;20678;-62
2024/01/28 05:33:14;;;;;;;1.13;1.10;;;;;-1.20;97345.00;;;;5077034;28;20303;-62
2024/01/28 05:35:42;;;;;;;1.30;1.30;;;;;-1.20;97356.00;;;;5076454;28;20193;-62
2024/01/28 05:38:09;;;;;;;1.77;1.67;;;;;-1.20;97357.00;;;;5076306;28;20254;-62
2024/01/28 05:40:37;;;;;;;1.70;1.60;;;;;-1.20;97354.00;;;;5077095;28;20546;-62
2024/01/28 05:43:04;;;;;;;0.70;0.70;;;;;-1.20;97356.00;;;;5076703;28;20219;-62
2024/01/28 05:45:32;;;;;;;2.07;1.73;;;;;-1.20;97356.00;;;;5057527;28;20238;-62
2024/01/28 05:48:01;;;;;;;1.90;1.43;;;;;-1.30;97365.00;;;;5075412;28;20745;-62
2024/01/28 05:50:29;;;;;;;1.63;1.53;;;;;-1.40;97357.00;;;;5075292;28;20663;-62
2024/01/28 05:52:59;;;;;;;2.17;2.00;;;;;-1.50;97348.00;;;;5076857;28;20255;-62
2024/01/28 05:55:27;;;;;;;1.90;1.57;;;;;-1.50;97359.00;;;;5075993;28;20188;-62
2024/01/28 05:57:54;;;;;;;1.23;1.23;;;;;-1.50;97361.00;;;;5075781;28;20219;-63
2024/01/28 06:00:22;;;;;;;3.80;1.60;;;;;-1.40;97356.00;;;;5075358;28;20239;-63
2024/01/28 06:02:49;;;;;;;1.27;1.27;;;;;-1.50;97358.00;;;;5074981;28;20211;-63
2024/01/28 06:05:18;;;;;;;0.90;0.90;;;;;-1.60;97359.00;;;;5057154;28;20586;-63
2024/01/28 06:07:45;;;;;;;1.13;1.13;;;;;-1.40;97350.00;;;;5076805;28;20197;-63
2024/01/28 06:10:13;;;;;;;1.37;1.27;;;;;-1.60;97357.00;;;;5075475;28;20664;-63
2024/01/28 06:12:41;;;;;;;2.17;1.97;;;;;-1.50;97357.00;;;;5075370;28;20227;-63
2024/01/28 06:15:09;;;;;;;1.37;1.27;;;;;-1.40;97356.00;;;;5058291;28;20290;-63
2024/01/28 06:17:37;;;;;;;1.00;1.00;;;;;-1.40;97357.00;;;;5074908;28;20184;-63
2024/01/28 06:20:06;;;;;;;1.20;1.20;;;;;-1.40;97354.00;;;;5075050;28;20210;-61
2024/01/28 06:22:34;;;;;;;1.10;1.10;;;;;-1.40;97356.00;;;;5074992;28;20205;-60
2024/01/28 06:25:02;;;;;;;1.00;1.00;;;;;-1.40;97354.00;;;;5075153;28;20307;-60
2024/01/28 06:27:30;;;;;;;2.20;1.60;;;;;-1.50;97355.00;;;;5075024;28;20278;-61
2024/01/28 06:29:58;;;;;;;1.37;1.00;;;;;-1.60;97363.00;;;;5074904;28;20191;-62
2024/01/28 06:32:25;;;;;;;1.33;1.23;;;;;-1.60;97358.00;;;;5075439;28;20215;-62
2024/01/28 06:34:53;;;;;;;0.90;0.90;;;;;-1.60;97359.00;;;;5076996;28;20562;-62
2024/01/28 06:37:20;;;;;;;1.17;1.13;;;;;-1.60;97356.00;;;;5056684;28;20199;-62
2024/01/28 06:39:51;;;;;;;1.87;1.77;;;;;-1.60;97365.00;;;;5074787;28;20202;-62
2024/01/28 06:42:19;;;;;;;1.20;1.20;;;;;-1.60;97360.00;;;;5074562;28;20254;-62
2024/01/28 06:44:47;;;;;;;1.10;1.10;;;;;-1.60;97366.00;;;;5074971;28;20584;-62
2024/01/28 06:47:14;;;;;;;0.90;0.90;;;;;-1.60;97362.00;;;;5056606;28;20629;-62
2024/01/28 06:49:42;;;;;;;2.73;1.90;;;;;-1.70;97365.00;;;;5074060;28;20253;-62
2024/01/28 06:52:10;;;;;;;1.30;1.30;;;;;-1.60;97367.00;;;;5074944;28;20211;-62
2024/01/28 06:54:40;;;;;;;1.00;1.00;;;;;-1.60;97370.00;;;;5075304;28;20249;-62
2024/01/28 06:57:09;;;;;;;1.17;1.17;;;;;-1.70;97366.00;;;;5074771;28;20191;-62
2024/01/28 06:59:37;;;;;;;1.00;1.00;;;;;-1.70;97364.00;;;;5056287;28;20286;-62
2024/01/28 07:02:04;;;;;;;2.80;2.47;;;;;-1.80;97371.00;;;;5074114;28;20211;-62
2024/01/28 07:04:32;;;;;;;1.00;1.00;;;;;-1.80;97370.00;;;;5056463;28;20223;-62
2024/01/28 07:06:59;;;;;;;1.50;1.40;;;;;-1.70;97372.00;;;;5074713;28;20566;-62
2024/01/28 07:09:27;;;;;;;1.50;1.40;;;;;-1.60;97372.00;;;;5074037;28;20188;-62
2024/01/28 07:11:54;;;;;;;2.03;1.93;;;;;-1.50;97375.00;;;;5074413;28;20613;-62
2024/01/28 07:14:23;;;;;;;3.13;1.47;;;;;-1.50;97377.00;;;;5074367;28;20188;-62
2024/01/28 07:16:52;;;;;;;3.50;1.83;;;;;-1.50;97372.00;;;;5074318;28;20616;-62
2024/01/28 07:19:19;;;;;;;1.33;1.33;;;;;-1.50;97370.00;;;;5073991;28;20655;-62
2024/01/28 07:21:47;;;;;;;1.87;1.77;;;;;-1.40;97367.00;;;;5074835;28;20183;-62
2024/01/28 07:24:15;;;;;;;2.63;2.40;;;;;-1.50;97366.00;;;;5074645;28;20188;-62
2024/01/28 07:26:46;;;;;;;3.50;3.00;;;;;-1.50;97356.00;;;;5074543;28;20560;-62
2024/01/28 07:29:13;;;;;;;3.07;2.60;;;;;-1.50;97360.00;;;;5074189;28;20281;-63
2024/01/28 07:31:45;;;;;;;3.37;3.10;;;;;-1.50;97373.00;;;;5074249;28;20188;-63
2024/01/28 07:34:12;;;;;;;3.03;2.83;;;;;-1.60;97374.00;;;;5074492;28;20193;-63
2024/01/28 07:36:40;;;;;;;5.93;5.00;;;;;-1.60;97367.00;;;;5074440;28;20282;-63
2024/01/28 07:39:08;;;;;;;4.73;4.40;;;;;-1.60;97363.00;;;;5074377;28;20194;-64
2024/01/28 07:41:36;;;;;;;4.77;4.03;;;;;-1.40;97363.00;;;;5073754;28;20200;-64
2024/01/28 07:44:06;;;;;;;4.00;3.67;;;;;-1.40;97358.00;;;;5074150;28;20667;-63
2024/01/28 07:46:34;;;;;;;5.20;4.23;;;;;-1.30;97370.00;;;;5074327;28;20212;-63
2024/01/28 07:49:03;;;;;;;3.50;3.20;;;;;-1.30;97372.00;;;;5074239;28;20204;-64
2024/01/28 07:51:30;;;;;;;2.67;2.47;;;;;-1.30;97365.00;;;;5074714;28;20244;-63
2024/01/28 07:53:58;;;;;;;8.63;4.73;;;;;-1.20;97364.00;;;;5056439;28;20203;-64
2024/01/28 07:56:26;;;;;;;4.97;4.47;;;;;-1.10;97370.00;;;;5074219;28;20563;-63
2024/01/28 07:58:54;;;;;;;8.57;4.73;;;;;-1.10;97353.00;;;;5075752;28;20200;-63
2024/01/28 08:01:21;;;;;;;2.83;2.60;;;;;-1.10;97355.00;;;;5074143;28;20198;-63
2024/01/28 08:03:49;;;;;;;6.73;3.33;;;;;-0.90;97348.00;;;;5074603;28;20220;-63
2024/01/28 08:06:24;;;;;;;4.20;3.80;;;;;-0.90;97352.00;;;;5073645;28;20547;-64
2024/01/28 08:09:02;;;;;;;5.30;3.97;;;;;-0.80;97340.00;;;;5056603;28;20193;-63
2024/01/28 08:11:30;;;;;;;3.00;2.77;;;;;-0.70;97346.00;;;;5075415;28;20180;-63
2024/01/28 08:13:57;;;;;;;2.87;2.67;;;;;-0.60;97349.00;;;;5074346;28;20205;-63
2024/01/28 08:16:25;;;;;;;2.63;2.43;;;;;-0.50;97345.00;;;;5073765;28;20206;-64
2024/01/28 08:18:53;;;;;;;2.47;2.20;;;;;-0.40;97349.00;;;;5075292;28;20193;-63
2024/01/28 08:21:24;;;;;;;1.40;1.40;;;;;-0.40;97352.00;;;;5076879;28;20280;-63
2024/01/28 08:23:51;;;;;;;1.23;1.23;;;;;-0.30;97340.00;;;;5078700;28;20217;-63
2024/01/28 08:26:18;;;;;;;5.23;3.83;;;;;-0.40;97343.00;;;;5078672;28;20214;-63
2024/01/28 08:28:46;;;;;;;3.80;3.10;;;;;-0.30;97340.00;;;;5077831;28;20202;-63
2024/01/28 08:31:14;;;;;;;2.50;2.33;;;;;-0.20;97339.00;;;;5077853;28;20200;-63
2024/01/28 08:33:41;;;;;;;2.70;2.50;;;;;-0.20;97344.00;;;;5078600;28;20224;-62
2024/01/28 08:36:09;;;;;;;2.10;1.93;;;;;-0.30;97342.00;;;;5063099;28;20190;-62
2024/01/28 08:38:38;;;;;;;1.70;1.60;;;;;-0.30;97334.00;;;;5078584;28;20662;-60
2024/01/28 08:41:07;;;;;;;2.60;2.40;;;;;-0.20;97348.00;;;;5076774;28;20194;-62
2024/01/28 08:43:37;;;;;;;1.70;1.60;;;;;0.00;97344.00;;;;5076414;28;20297;-61
2024/01/28 08:46:05;;;;;;;1.37;1.27;;;;;0.10;97350.00;;;;5077598;28;20542;-61
2024/01/28 08:48:33;;;;;;;1.50;1.43;;;;;0.30;97360.00;;;;5078201;28;20190;-61
2024/01/28 08:51:00;;;;;;;1.00;1.00;;;;;0.40;97354.00;;;;5077963;28;20201;-61
2024/01/28 08:53:31;;;;;;;1.20;1.20;;;;;0.50;97359.00;;;;5079736;28;20218;-61
2024/01/28 08:56:01;;;;;;;1.70;1.60;;;;;0.50;97351.00;;;;5081516;28;20187;-61
2024/01/28 08:58:33;;;;;;;3.50;2.70;;;;;0.60;97354.00;;;;5081248;28;20523;-61
2024/01/28 09:01:00;;;;;;;4.33;3.73;;;;;0.80;97356.00;;;;5077845;28;20198;-62
2024/01/28 09:03:28;;;;;;;3.83;3.53;;;;;0.90;97364.00;;;;5077666;28;20741;-61
2024/01/28 09:06:05;;;;;;;3.50;3.00;;;;;1.00;97364.00;;;;5059088;28;20308;-60
2024/01/28 09:08:33;;;;;;;2.73;1.73;;;;;1.00;97369.00;;;;5078606;28;20181;-61
2024/01/28 09:11:02;;;;;;;1.93;1.83;;;;;1.00;97359.00;;;;5077328;28;20191;-61
2024/01/28 09:13:29;;;;;;;2.23;2.13;;;;;1.10;97369.00;;;;5059055;28;20578;-60
2024/01/28 09:15:56;;;;;;;2.63;2.43;;;;;1.30;97358.00;;;;5077162;28;20205;-60
2024/01/28 09:18:24;;;;;;;3.20;2.37;;;;;1.50;97358.00;;;;5077091;28;20197;-61
2024/01/28 09:20:52;;;;;;;1.40;1.40;;;;;1.70;97357.00;;;;5058108;28;20202;-62
2024/01/28 09:23:19;;;;;;;2.30;2.10;;;;;1.90;97354.00;;;;5078241;28;20219;-61
2024/01/28 09:25:47;;;;;;;6.57;3.33;;;;;2.00;97354.00;;;;5077807;28;20736;-61
2024/01/28 09:28:16;;;;;;;4.40;2.97;;;;;2.00;97358.00;;;;5075685;28;20199;-62
2024/01/28 09:30:45;;;;;;;2.47;1.77;;;;;2.10;97359.00;;;;5077135;28;20213;-62
2024/01/28 09:33:13;;;;;;;1.60;1.50;;;;;1.90;97357.00;;;;5076270;28;20211;-62
2024/01/28 09:35:42;;;;;;;0.90;0.90;;;;;2.10;97358.00;;;;5078259;28;20195;-62
2024/01/28 09:38:09;;;;;;;1.60;1.50;;;;;2.10;97360.00;;;;5077034;28;20218;-63
2024/01/28 09:40:37;;;;;;;1.00;0.97;;;;;2.20;97357.00;;;;5076179;28;20202;-63
2024/01/28 09:43:11;;;;;;;1.23;1.17;;;;;2.30;97355.00;;;;5076418;28;20219;-61
2024/01/28 09:45:40;;;;;;;1.37;1.27;;;;;2.30;97354.00;;;;5077113;28;20199;-61
2024/01/28 09:48:10;;;;;;;1.17;1.17;;;;;2.50;97354.00;;;;5076528;28;20191;-61
2024/01/28 09:50:37;;;;;;;1.17;1.13;;;;;2.90;97361.00;;;;5075294;28;20314;-61
2024/01/28 09:53:05;;;;;;;0.90;0.90;;;;;3.10;97354.00;;;;5057269;28;20222;-61
2024/01/28 09:55:33;;;;;;;2.03;1.67;;;;;3.20;97360.00;;;;5075303;28;20194;-62
2024/01/28 09:58:00;;;;;;;1.83;1.67;;;;;3.20;97352.00;;;;5075933;28;20218;-62
2024/01/28 10:00:29;;;;;;;1.70;1.60;;;;;3.20;97354.00;;;;5076969;28;20199;-61
2024/01/28 10:03:03;;;;;;;1.63;1.53;;;;;3.20;97355.00;;;;5076885;28;20272;-62
2024/01/28 10:05:34;;;;;;;0.90;0.90;;;;;3.50;97370.00;;;;5075997;28;20639;-63
2024/01/28 10:08:03;;;;;;;1.57;1.47;;;;;3.60;97362.00;;;;5076961;28;20194;-61
2024/01/28 10:10:32;;;;;;;1.67;1.57;;;;;3.70;97353.00;;;;5075671;28;20192;-61
2024/01/28 10:13:00;;;;;;;1.43;1.27;;;;;3.80;97354.00;;;;5060879;28;20760;-62
2024/01/28 10:15:31;;;;;;;1.83;1.73;;;;;3.90;97356.00;;;;5076275;28;20204;-62
2024/01/28 10:18:00;;;;;;;4.03;1.13;;;;;4.20;97351.00;;;;5076052;28;20533;-62
2024/01/28 10:20:29;;;;;;;2.07;1.90;;;;;4.40;97356.00;;;;5057653;28;20562;-62
2024/01/28 10:22:57;;;;;;;2.47;2.27;;;;;4.50;97351.00;;;;5074993;28;20220;-62
2024/01/28 10:25:25;;;;;;;1.20;1.10;;;;;4.70;97353.00;;;;5075133;28;20191;-62
2024/01/28 10:27:53;;;;;;;2.23;2.13;;;;;4.80;97348.00;;;;5076335;28;20192;-62
2024/01/28 10:30:28;;;;;;;1.77;1.67;;;;;5.00;97349.00;;;;5075790;28;20173;-62
2024/01/28 10:32:55;;;;;;;1.40;1.30;;;;;5.30;97338.00;;;;5074915;28;20219;-62
2024/01/28 10:35:25;;;;;;;1.37;1.27;;;;;5.20;97342.00;;;;5075838;28;20241;-62
2024/01/28 10:37:53;;;;;;;1.00;1.00;;;;;5.40;97334.00;;;;5076354;28;20221;-62
2024/01/28 10:40:23;;;;;;;1.10;1.10;;;;;5.60;97328.00;;;;5075141;28;20199;-62
2024/01/28 10:42:57;;;;;;;1.37;1.37;;;;;5.70;97336.00;;;;5074364;28;20756;-62
2024/01/28 10:45:25;;;;;;;0.80;0.80;;;;;5.70;97336.00;;;;5074932;28;20194;-62
2024/01/28 10:47:54;;;;;;;0.73;0.73;;;;;5.70;97333.00;;;;5075556;28;20187;-62
2024/01/28 10:50:26;;;;;;;1.00;1.00;;;;;5.90;97324.00;;;;5074916;28;20655;-62
2024/01/28 10:52:59;;;;;;;1.70;1.57;;;;;6.30;97332.00;;;;5077801;28;20215;-62
2024/01/28 10:55:28;;;;;;;2.67;1.97;;;;;6.30;97325.00;;;;5074775;28;20186;-62
2024/01/28 10:57:57;;;;;;;1.00;1.00;;;;;6.40;97322.00;;;;5074279;28;20195;-62
2024/01/28 11:00:26;;;;;;;1.57;1.47;;;;;6.70;97321.00;;;;5074499;28;20554;-62
2024/01/28 11:02:56;;;;;;;0.80;0.80;;;;;7.10;97315.00;;;;5073990;28;20296;-62
2024/01/28 11:05:25;;;;;;;0.60;0.60;;;;;7.40;97312.00;;;;5074828;28;20204;-62
2024/01/28 11:07:59;;;;;;;0.63;0.63;;;;;7.60;97308.00;;;;5057032;28;20543;-62
2024/01/28 11:10:28;;;;;;;0.80;0.80;;;;;7.80;97304.00;;;;5074723;28;20182;-62
2024/01/28 11:12:57;;;;;;;0.70;0.70;;;;;8.10;97303.00;;;;5056173;28;20698;-62
2024/01/28 11:15:26;;;;;;;0.90;0.90;;;;;8.40;97296.00;;;;5073867;28;20697;-62
2024/01/28 11:17:55;;;;;;;0.80;0.80;;;;;8.70;97296.00;;;;5074433;28;20726;-62
2024/01/28 11:20:28;;;;;;;0.73;0.73;;;;;9.10;97289.00;;;;5074007;28;20192;-62
2024/01/28 11:22:58;;;;;;;0.93;0.93;;;;;9.50;97285.00;;;;5074198;28;20581;-63
2024/01/28 11:25:27;;;;;;;0.63;0.63;;;;;9.90;97274.00;;;;5076966;28;20558;-63
2024/01/28 11:28:00;;;;;;;0.80;0.80;;;;;10.30;97278.00;;;;5075611;28;20241;-62
2024/01/28 11:30:28;;;;;;;1.43;1.37;;;;;10.70;97273.00;;;;5056809;28;20195;-62
2024/01/28 11:33:07;;;;;;;0.63;0.63;;;;;10.90;97266.00;;;;5074744;28;20311;-62
2024/01/28 11:35:36;;;;;;;1.00;1.00;;;;;11.20;97274.00;;;;5073710;28;20262;-62
2024/01/28 11:38:09;;;;;;;0.90;0.90;;;;;11.70;97264.00;;;;5073762;28;20195;-62
2024/01/28 11:40:38;;;;;;;0.90;0.87;;;;;12.20;97270.00;;;;5073849;28;20236;-61
2024/01/28 11:43:07;;;;;;;0.60;0.60;;;;;12.00;97258.00;;;;5073431;28;20224;-62
2024/01/28 11:45:35;;;;;;;0.63;0.63;;;;;12.50;97252.00;;;;5073367;28;20187;-62
2024/01/28 11:48:07;;;;;;;0.67;0.67;;;;;12.90;97254.00;;;;5073293;28;20187;-62
2024/01/28 11:50:36;;;;;;;1.27;1.17;;;;;13.20;97257.00;;;;5056697;28;20775;-62
2024/01/28 11:53:05;;;;;;;2.53;1.00;;;;;13.70;97247.00;;;;5073362;28;20211;-62
2024/01/28 11:55:36;;;;;;;0.83;0.83;;;;;14.30;97246.00;;;;5073272;28;20606;-62
2024/01/28 11:58:05;;;;;;;0.80;0.80;;;;;14.60;97235.00;;;;5074087;28;20180;-62
2024/01/28 12:00:32;;;;;;;0.80;0.80;;;;;15.10;97232.00;;;;5073664;28;20194;-62
2024/01/28 12:03:00;;;;;;;1.00;1.00;;;;;15.70;97227.00;;;;5074158;28;20294;-62
2024/01/28 12:05:28;;;;;;;0.87;0.87;;;;;16.30;97216.00;;;;5073865;28;20199;-64
2024/01/28 12:08:02;;;;;;;1.70;1.17;;;;;17.00;97213.00;;;;5073885;28;20229;-62
2024/01/28 12:10:30;;;;;;;0.50;0.50;;;;;17.50;97210.00;;;;5073805;28;20182;-62
2024/01/28 12:12:58;;;;;;;0.83;0.83;;;;;18.60;97207.00;;;;5073403;28;20214;-62
2024/01/28 12:15:26;;;;;;;1.30;0.70;;;;;19.10;97206.00;;;;5073626;28;20670;-62
2024/01/28 12:17:53;;;;;;;0.70;0.70;;;;;19.50;97204.00;;;;5073416;28;20203;-62
2024/01/28 12:20:22;;;;;;;0.67;0.67;;;;;20.30;97195.00;;;;5055522;28;20647;-61
2024/01/28 12:22:50;;;;;;;0.50;0.50;;;;;20.80;97187.00;;;;5073030;28;20221;-61
2024/01/28 12:25:22;;;;;;;0.90;0.90;;;;;20.50;97184.00;;;;5074280;28;20714;-63
2024/01/28 12:27:51;;;;;;;0.80;0.80;;;;;21.00;97177.00;;;;5075249;28;20206;-63